createdAt,value
2018-07-06T00:01:17.749Z,13.15
2018-07-06T00:04:03.037Z,12.99
2018-07-06T00:06:48.364Z,13.02
2018-07-06T00:09:33.410Z,12.92
2018-07-06T00:12:18.700Z,13.00
2018-07-06T00:15:04.049Z,13.07
2018-07-06T00:17:49.252Z,12.97
2018-07-06T00:20:34.491Z,12.86
2018-07-06T00:23:19.706Z,12.85
2018-07-06T00:26:04.977Z,12.94
2018-07-06T00:28:50.281Z,12.97
2018-07-06T00:31:35.380Z,12.96
2018-07-06T00:34:20.758Z,13.06
2018-07-06T00:37:06.057Z,13.12
2018-07-06T00:39:51.437Z,13.08
2018-07-06T00:42:36.601Z,13.11
2018-07-06T00:45:21.704Z,12.97
2018-07-06T00:48:07.050Z,12.89
2018-07-06T00:50:52.440Z,12.86
2018-07-06T00:53:37.621Z,12.80
2018-07-06T00:56:22.809Z,12.83
2018-07-06T00:59:08.041Z,12.86
2018-07-06T01:01:53.471Z,12.79
2018-07-06T01:04:38.523Z,12.78
2018-07-06T01:07:23.709Z,12.93
2018-07-06T01:10:08.831Z,12.97
2018-07-06T01:13:01.221Z,12.86
2018-07-06T01:15:46.352Z,12.76
2018-07-06T01:18:31.469Z,12.73
2018-07-06T01:21:16.733Z,13.09
2018-07-06T01:24:01.807Z,13.06
2018-07-06T01:26:47.304Z,12.98
2018-07-06T01:29:32.498Z,12.89
2018-07-06T01:32:17.906Z,12.86
2018-07-06T01:35:03.352Z,12.98
2018-07-06T01:37:48.771Z,12.93
2018-07-06T01:40:28.127Z,12.99
2018-07-06T01:43:13.334Z,13.06
2018-07-06T01:45:58.646Z,12.97
2018-07-06T01:48:43.685Z,12.98
2018-07-06T01:51:29.188Z,12.78
2018-07-06T01:54:14.530Z,12.75
2018-07-06T01:56:59.737Z,12.85
2018-07-06T01:59:44.837Z,12.70
2018-07-06T02:02:30.189Z,12.66
2018-07-06T02:05:15.563Z,12.80
2018-07-06T02:08:01.003Z,12.65
2018-07-06T02:10:46.130Z,12.80
2018-07-06T02:13:31.213Z,12.78
2018-07-06T02:16:16.549Z,12.66
2018-07-06T02:19:01.721Z,12.76
2018-07-06T02:21:47.055Z,12.67
2018-07-06T02:24:32.214Z,12.63
2018-07-06T02:27:17.409Z,12.60
2018-07-06T02:30:02.485Z,12.81
2018-07-06T02:32:47.881Z,12.85
2018-07-06T02:35:32.897Z,15.46
2018-07-06T02:38:18.324Z,15.45
2018-07-06T02:41:03.686Z,14.30
2018-07-06T02:43:49.081Z,14.05
2018-07-06T02:46:34.522Z,14.09
2018-07-06T02:49:19.721Z,13.76
2018-07-06T02:52:05.188Z,12.54
2018-07-06T02:54:50.529Z,12.58
2018-07-06T02:57:35.721Z,12.62
2018-07-06T03:00:21.025Z,12.69
2018-07-06T03:03:06.462Z,12.69
2018-07-06T03:05:51.872Z,12.60
2018-07-06T03:08:37.122Z,12.62
2018-07-06T03:11:22.720Z,12.57
2018-07-06T03:14:07.975Z,12.52
2018-07-06T03:16:53.285Z,12.50
2018-07-06T03:19:38.440Z,12.65
2018-07-06T03:22:23.689Z,12.66
2018-07-06T03:25:09.026Z,12.57
2018-07-06T03:27:48.585Z,12.67
2018-07-06T03:30:34.373Z,12.46
2018-07-06T03:33:19.573Z,12.44
2018-07-06T03:36:04.846Z,12.56
2018-07-06T03:38:50.042Z,12.53
2018-07-06T03:41:35.513Z,12.67
2018-07-06T03:44:20.961Z,12.65
2018-07-06T03:47:05.959Z,13.11
2018-07-06T03:49:51.049Z,12.63
2018-07-06T03:52:36.882Z,12.62
2018-07-06T03:55:22.225Z,12.69
2018-07-06T03:58:07.597Z,12.45
2018-07-06T04:00:52.871Z,12.38
2018-07-06T04:03:38.197Z,12.64
2018-07-06T04:06:23.442Z,12.52
2018-07-06T04:09:08.563Z,12.46
2018-07-06T04:11:53.847Z,12.65
2018-07-06T04:14:39.134Z,12.67
2018-07-06T04:17:24.469Z,12.73
2018-07-06T04:20:09.791Z,12.92
2018-07-06T04:22:54.989Z,12.85
2018-07-06T04:25:40.313Z,12.76
2018-07-06T04:28:25.425Z,12.78
2018-07-06T04:31:10.765Z,12.92
2018-07-06T04:33:55.802Z,12.79
2018-07-06T04:36:41.099Z,12.94
2018-07-06T04:39:26.388Z,12.96
2018-07-06T04:42:11.962Z,12.91
2018-07-06T04:44:57.250Z,13.12
2018-07-06T04:47:42.556Z,13.13
2018-07-06T04:50:27.622Z,13.30
2018-07-06T04:53:13.109Z,13.34
2018-07-06T04:55:58.463Z,13.39
2018-07-06T04:58:43.717Z,13.79
2018-07-06T05:01:29.004Z,13.72
2018-07-06T05:04:14.346Z,13.97
2018-07-06T05:06:59.684Z,14.12
2018-07-06T05:09:44.799Z,14.16
2018-07-06T05:12:29.981Z,14.17
2018-07-06T05:15:15.302Z,14.34
2018-07-06T05:18:00.722Z,14.53
2018-07-06T05:20:46.102Z,14.46
2018-07-06T05:23:31.125Z,14.62
2018-07-06T05:26:16.093Z,14.82
2018-07-06T05:29:01.342Z,14.76
2018-07-06T05:31:46.585Z,14.67
2018-07-06T05:34:31.534Z,14.38
2018-07-06T05:37:16.882Z,14.53
2018-07-06T05:40:02.170Z,14.65
2018-07-06T05:42:47.387Z,14.97
2018-07-06T05:45:32.743Z,15.03
2018-07-06T05:48:18.079Z,15.54
2018-07-06T05:51:03.285Z,15.55
2018-07-06T05:53:48.624Z,15.90
2018-07-06T05:56:33.947Z,15.48
2018-07-06T05:59:19.167Z,15.83
2018-07-06T06:02:04.416Z,15.37
2018-07-06T06:04:49.627Z,15.43
2018-07-06T06:07:23.457Z,15.23
2018-07-06T06:09:51.821Z,15.16
2018-07-06T06:12:20.250Z,15.57
2018-07-06T06:14:49.567Z,15.77
2018-07-06T06:17:17.825Z,16.11
2018-07-06T06:19:45.998Z,16.05
2018-07-06T06:22:14.128Z,16.58
2018-07-06T06:24:42.406Z,17.67
2018-07-06T06:27:10.557Z,17.70
2018-07-06T06:29:38.975Z,17.36
2018-07-06T06:32:08.527Z,17.02
2018-07-06T06:34:36.752Z,17.14
2018-07-06T06:37:05.007Z,17.50
2018-07-06T06:39:33.648Z,17.15
2018-07-06T06:42:02.065Z,17.84
2018-07-06T06:44:30.386Z,17.49
2018-07-06T06:46:59.390Z,17.56
2018-07-06T06:49:28.882Z,17.94
2018-07-06T06:51:57.219Z,18.52
2018-07-06T06:54:25.927Z,18.38
2018-07-06T06:56:54.453Z,17.42
2018-07-06T06:59:23.335Z,17.67
2018-07-06T07:01:51.583Z,17.14
2018-07-06T07:04:20.684Z,17.05
2018-07-06T07:06:48.983Z,16.51
2018-07-06T07:09:17.235Z,16.84
2018-07-06T07:11:45.615Z,16.86
2018-07-06T07:14:13.949Z,17.12
2018-07-06T07:16:42.098Z,17.64
2018-07-06T07:19:10.464Z,17.57
2018-07-06T07:21:38.947Z,17.74
2018-07-06T07:24:07.203Z,17.08
2018-07-06T07:26:35.696Z,17.12
2018-07-06T07:29:04.079Z,16.96
2018-07-06T07:31:32.355Z,16.63
2018-07-06T07:34:00.714Z,16.44
2018-07-06T07:36:29.209Z,16.47
2018-07-06T07:38:57.928Z,16.51
2018-07-06T07:41:26.496Z,16.61
2018-07-06T07:43:54.937Z,17.10
2018-07-06T07:46:23.271Z,16.81
2018-07-06T07:48:51.622Z,16.64
2018-07-06T07:52:04.330Z,16.74
2018-07-06T07:54:49.347Z,16.81
2018-07-06T07:57:18.520Z,16.95
2018-07-06T07:59:48.362Z,17.01
2018-07-06T08:02:17.046Z,17.01
2018-07-06T08:04:45.976Z,16.99
2018-07-06T08:07:14.318Z,16.84
2018-07-06T08:09:43.093Z,17.32
2018-07-06T08:12:11.838Z,17.42
2018-07-06T08:14:40.210Z,17.58
2018-07-06T08:17:08.982Z,17.64
2018-07-06T08:19:37.504Z,17.29
2018-07-06T08:22:06.004Z,17.26
2018-07-06T08:24:34.472Z,17.42
2018-07-06T08:27:03.107Z,17.13
2018-07-06T08:29:31.550Z,17.70
2018-07-06T08:32:00.763Z,17.85
2018-07-06T08:34:46.278Z,18.16
2018-07-06T08:37:41.906Z,17.94
2018-07-06T08:40:10.567Z,17.63
2018-07-06T08:42:39.936Z,17.27
2018-07-06T08:45:08.781Z,17.16
2018-07-06T08:47:37.044Z,16.96
2018-07-06T08:50:06.444Z,16.93
2018-07-06T08:52:35.413Z,17.18
2018-07-06T08:55:04.704Z,17.71
2018-07-06T08:57:34.321Z,18.20
2018-07-06T09:00:03.684Z,18.13
2018-07-06T09:02:32.465Z,17.81
2018-07-06T09:05:01.511Z,18.11
2018-07-06T09:07:30.276Z,18.05
2018-07-06T09:09:59.616Z,18.31
2018-07-06T09:12:28.283Z,18.68
2018-07-06T09:14:57.192Z,18.88
2018-07-06T09:17:25.765Z,19.03
2018-07-06T09:19:55.513Z,18.83
2018-07-06T09:22:23.838Z,18.79
2018-07-06T09:24:53.519Z,19.13
2018-07-06T09:27:23.495Z,19.69
2018-07-06T09:29:51.789Z,19.62
2018-07-06T09:32:20.985Z,18.96
2018-07-06T09:34:49.577Z,18.70
2018-07-06T09:37:17.905Z,18.58
2018-07-06T09:39:47.127Z,18.57
2018-07-06T09:42:16.003Z,19.31
2018-07-06T09:44:44.462Z,19.56
2018-07-06T09:47:12.889Z,19.83
2018-07-06T09:49:41.359Z,19.99
2018-07-06T09:52:09.907Z,20.04
2018-07-06T09:54:38.408Z,19.78
2018-07-06T09:57:06.955Z,20.26
2018-07-06T09:59:35.266Z,20.20
2018-07-06T10:02:05.890Z,19.38
2018-07-06T10:04:34.367Z,18.99
2018-07-06T10:07:02.968Z,19.20
2018-07-06T10:09:32.322Z,19.14
2018-07-06T10:12:00.705Z,18.96
2018-07-06T10:14:29.419Z,18.72
2018-07-06T10:16:57.919Z,19.10
2018-07-06T10:19:26.280Z,19.39
2018-07-06T10:21:54.994Z,19.50
2018-07-06T10:24:23.623Z,19.90
2018-07-06T10:26:52.159Z,19.79
2018-07-06T10:30:29.603Z,19.49
2018-07-06T10:32:58.314Z,20.08
2018-07-06T10:35:26.623Z,20.41
2018-07-06T10:37:55.073Z,20.67
2018-07-06T10:40:23.461Z,20.16
2018-07-06T10:42:51.993Z,20.70
2018-07-06T10:45:26.106Z,20.41
2018-07-06T10:47:54.522Z,20.70
2018-07-06T10:50:23.117Z,20.35
2018-07-06T10:52:51.691Z,20.44
2018-07-06T10:55:21.110Z,20.68
2018-07-06T10:57:49.753Z,20.80
2018-07-06T11:00:18.539Z,20.88
2018-07-06T11:02:46.992Z,21.04
2018-07-06T11:05:15.720Z,20.90
2018-07-06T11:07:45.042Z,20.75
2018-07-06T11:10:14.381Z,20.78
2018-07-06T11:12:42.898Z,20.86
2018-07-06T11:15:11.609Z,21.23
2018-07-06T11:17:40.039Z,20.98
2018-07-06T11:20:08.427Z,20.93
2018-07-06T11:22:36.917Z,20.89
2018-07-06T11:25:05.582Z,21.14
2018-07-06T11:27:34.013Z,21.70
2018-07-06T11:30:02.348Z,21.56
2018-07-06T11:32:30.853Z,21.97
2018-07-06T11:34:59.981Z,21.88
2018-07-06T11:37:28.397Z,22.13
2018-07-06T11:39:57.548Z,21.66
2018-07-06T11:42:26.111Z,20.97
2018-07-06T11:44:54.495Z,20.88
2018-07-06T11:47:23.762Z,20.87
2018-07-06T11:49:55.758Z,21.00
2018-07-06T11:52:24.178Z,21.69
2018-07-06T11:54:52.502Z,22.28
2018-07-06T11:57:21.296Z,21.93
2018-07-06T11:59:49.505Z,22.13
2018-07-06T12:02:18.507Z,22.05
2018-07-06T12:04:46.943Z,22.25
2018-07-06T12:07:15.483Z,22.08
2018-07-06T12:09:44.001Z,22.57
2018-07-06T12:12:12.440Z,22.48
2018-07-06T12:14:41.075Z,22.05
2018-07-06T12:17:09.458Z,22.28
2018-07-06T12:19:37.851Z,22.41
2018-07-06T12:22:06.482Z,22.84
2018-07-06T12:24:34.857Z,22.42
2018-07-06T12:27:03.459Z,21.98
2018-07-06T12:29:31.952Z,21.93
2018-07-06T12:32:01.557Z,21.77
2018-07-06T12:34:30.238Z,22.31
2018-07-06T12:36:58.552Z,22.69
2018-07-06T12:39:26.845Z,22.74
2018-07-06T12:41:55.183Z,22.41
2018-07-06T12:44:23.515Z,22.07
2018-07-06T12:46:51.926Z,22.54
2018-07-06T12:49:20.790Z,21.94
2018-07-06T12:51:49.455Z,22.00
2018-07-06T12:54:17.759Z,22.66
2018-07-06T12:56:46.347Z,22.35
2018-07-06T12:59:14.763Z,22.01
2018-07-06T13:01:43.296Z,22.54
2018-07-06T13:04:11.931Z,23.20
2018-07-06T13:06:40.352Z,23.34
2018-07-06T13:09:08.844Z,22.77
2018-07-06T13:11:38.135Z,22.92
2018-07-06T13:14:06.757Z,23.37
2018-07-06T13:16:35.638Z,23.36
2018-07-06T13:19:04.136Z,23.58
2018-07-06T13:21:33.225Z,23.56
2018-07-06T13:24:01.619Z,23.51
2018-07-06T13:26:30.154Z,23.59
2018-07-06T13:28:58.462Z,23.47
2018-07-06T13:31:27.135Z,22.66
2018-07-06T13:33:55.634Z,22.98
2018-07-06T13:36:24.711Z,22.89
2018-07-06T13:38:53.485Z,22.33
2018-07-06T13:41:21.867Z,22.20
2018-07-06T13:43:50.411Z,22.01
2018-07-06T13:46:18.891Z,22.06
2018-07-06T13:48:47.553Z,22.02
2018-07-06T13:51:16.136Z,21.98
2018-07-06T13:53:44.616Z,21.84
2018-07-06T13:56:13.259Z,21.51
2018-07-06T13:58:42.085Z,21.47
2018-07-06T14:01:10.659Z,21.45
2018-07-06T14:03:40.362Z,21.35
2018-07-06T14:06:08.757Z,20.96
2018-07-06T14:08:44.351Z,20.92
2018-07-06T14:11:13.015Z,20.78
2018-07-06T14:13:41.692Z,20.36
2018-07-06T14:16:10.511Z,20.03
2018-07-06T14:18:39.089Z,19.41
2018-07-06T14:21:11.866Z,18.59
2018-07-06T14:23:40.446Z,17.65
2018-07-06T14:26:08.812Z,16.79
2018-07-06T14:28:37.506Z,15.32
2018-07-06T14:31:06.074Z,14.07
2018-07-06T14:33:34.350Z,12.98
2018-07-06T14:36:02.879Z,13.30
2018-07-06T14:38:31.170Z,13.00
2018-07-06T14:40:59.594Z,13.10
2018-07-06T14:44:04.666Z,13.10
2018-07-06T14:46:33.173Z,12.90
2018-07-06T14:49:05.758Z,12.64
2018-07-06T14:51:34.226Z,12.90
2018-07-06T14:54:02.629Z,13.21
2018-07-06T14:56:31.045Z,13.49
2018-07-06T14:58:59.314Z,13.81
2018-07-06T15:01:27.782Z,13.83
2018-07-06T15:03:56.076Z,14.08
2018-07-06T15:06:24.247Z,14.19
2018-07-06T15:08:52.633Z,14.52
2018-07-06T15:11:20.822Z,14.78
2018-07-06T15:13:49.156Z,14.84
2018-07-06T15:16:17.418Z,14.83
2018-07-06T15:18:45.710Z,14.83
2018-07-06T15:21:14.085Z,14.80
2018-07-06T15:23:42.480Z,14.71
2018-07-06T15:26:10.830Z,14.80
2018-07-06T15:28:39.152Z,14.92
2018-07-06T15:31:07.508Z,15.02
2018-07-06T15:33:35.995Z,15.01
2018-07-06T15:36:04.490Z,14.88
2018-07-06T15:38:32.911Z,14.93
2018-07-06T15:41:01.291Z,14.91
2018-07-06T15:43:29.624Z,14.75
2018-07-06T15:45:58.079Z,14.89
2018-07-06T15:48:26.373Z,14.77
2018-07-06T15:50:54.988Z,14.78
2018-07-06T15:53:23.841Z,15.01
2018-07-06T15:55:52.334Z,14.84
2018-07-06T15:58:20.952Z,14.71
2018-07-06T16:00:49.800Z,14.95
2018-07-06T16:03:18.501Z,15.02
2018-07-06T16:05:47.280Z,15.19
2018-07-06T16:08:15.749Z,15.03
2018-07-06T16:10:44.342Z,15.13
2018-07-06T16:13:12.789Z,15.19
2018-07-06T16:15:41.567Z,15.39
2018-07-06T16:18:10.123Z,15.50
2018-07-06T16:20:38.682Z,15.74
2018-07-06T16:23:07.277Z,15.84
2018-07-06T16:25:36.971Z,16.07
2018-07-06T16:28:05.504Z,16.22
2018-07-06T16:30:34.855Z,16.13
2018-07-06T16:33:03.633Z,16.58
2018-07-06T16:35:32.154Z,16.90
2018-07-06T16:38:01.233Z,16.82
2018-07-06T16:40:29.711Z,16.94
2018-07-06T16:42:58.095Z,17.16
2018-07-06T16:45:26.532Z,17.49
2018-07-06T16:47:55.378Z,17.77
2018-07-06T16:50:23.884Z,17.89
2018-07-06T16:52:53.045Z,18.18
2018-07-06T16:55:21.563Z,18.14
2018-07-06T16:57:49.853Z,18.06
2018-07-06T17:00:18.479Z,17.98
2018-07-06T17:02:46.891Z,18.03
2018-07-06T17:05:15.477Z,18.37
2018-07-06T17:07:43.909Z,18.45
2018-07-06T17:10:12.396Z,18.56
2018-07-06T17:12:40.758Z,18.47
2018-07-06T17:15:09.282Z,18.64
2018-07-06T17:17:37.843Z,18.38
2018-07-06T17:20:06.371Z,18.41
2018-07-06T17:22:35.910Z,18.19
2018-07-06T17:25:04.566Z,17.85
2018-07-06T17:27:33.201Z,17.55
2018-07-06T17:30:01.858Z,17.32
2018-07-06T17:32:30.313Z,17.01
2018-07-06T17:34:58.919Z,16.59
2018-07-06T17:37:27.275Z,15.97
2018-07-06T17:39:55.913Z,15.47
2018-07-06T17:42:24.380Z,14.34
2018-07-06T17:44:52.784Z,12.95
2018-07-06T17:47:21.169Z,10.59
2018-07-06T17:49:49.816Z,9.34
2018-07-06T17:52:18.358Z,7.78
2018-07-06T17:54:46.876Z,6.67
2018-07-06T17:57:15.465Z,4.05
2018-07-06T17:59:44.040Z,-2.14
2018-07-06T18:02:13.827Z,-4.33
2018-07-06T18:04:42.262Z,-7.72
2018-07-06T18:07:10.564Z,-11.71
2018-07-06T18:09:38.859Z,-24.49
2018-07-06T18:12:07.560Z,-30.86
2018-07-06T18:14:36.112Z,-56.11
2018-07-06T18:17:04.374Z,-114.61
2018-07-06T18:19:32.820Z,-143.63
2018-07-06T18:22:01.328Z,-143.63
2018-07-06T18:24:29.616Z,-143.63
2018-07-06T18:26:58.151Z,-143.63
2018-07-06T18:29:26.630Z,-143.63
2018-07-06T18:31:54.862Z,-143.63
2018-07-06T18:34:23.155Z,-143.63
2018-07-06T18:36:51.364Z,-143.63
2018-07-06T18:39:19.674Z,-143.63
2018-07-06T18:41:47.951Z,-143.63
2018-07-06T18:44:16.191Z,-143.63
2018-07-06T18:46:44.665Z,-143.63
2018-07-06T18:49:13.323Z,-143.63
2018-07-06T18:51:41.600Z,-143.63
2018-07-06T18:54:09.966Z,-143.63
2018-07-06T18:56:38.152Z,-143.63
2018-07-06T18:59:06.985Z,-143.63
2018-07-06T19:01:35.212Z,-143.63
2018-07-06T19:04:03.476Z,-143.63
2018-07-06T19:06:31.822Z,-143.63
2018-07-06T19:09:00.193Z,-143.63
2018-07-06T19:11:28.480Z,-143.63
2018-07-06T19:13:56.728Z,-143.63
2018-07-06T19:16:24.959Z,-143.63
2018-07-06T19:18:53.354Z,-143.63
2018-07-06T19:21:21.637Z,-143.63
2018-07-06T19:23:49.926Z,-143.63
2018-07-06T19:26:18.298Z,-143.63
2018-07-06T19:28:46.676Z,-143.63
2018-07-06T19:31:15.332Z,-143.63
2018-07-06T19:33:43.559Z,-143.63
2018-07-06T19:36:11.789Z,-143.63
2018-07-06T19:38:39.999Z,-143.63
2018-07-06T19:41:08.444Z,-143.63
2018-07-06T19:43:36.656Z,-143.63
2018-07-06T19:46:05.334Z,-143.63
2018-07-06T19:48:33.632Z,-143.63
2018-07-06T19:51:01.851Z,-143.63
2018-07-06T19:53:30.168Z,-143.63
2018-07-06T19:55:58.555Z,-143.63
2018-07-06T19:58:26.921Z,-143.63
2018-07-06T20:00:55.590Z,-143.63
2018-07-06T20:03:24.049Z,-143.63
2018-07-06T20:05:52.420Z,-143.63
2018-07-06T20:08:20.799Z,-143.63
2018-07-06T20:10:49.312Z,-143.63
2018-07-06T20:13:17.632Z,-143.63
2018-07-06T20:15:46.035Z,-143.63
2018-07-06T20:18:14.544Z,-143.63
2018-07-06T20:20:42.871Z,-143.63
2018-07-06T20:23:11.228Z,-143.63
2018-07-06T20:25:39.731Z,-143.63
2018-07-06T20:28:08.444Z,-143.63
2018-07-06T20:30:37.182Z,-143.63
2018-07-06T20:33:05.530Z,-143.63
2018-07-06T20:35:33.961Z,-143.63
2018-07-06T20:38:02.431Z,-143.63
2018-07-06T20:40:30.948Z,-143.63
2018-07-06T20:42:59.546Z,-143.63
2018-07-06T20:45:27.890Z,-143.63
2018-07-06T20:47:56.985Z,-143.63
2018-07-06T20:50:25.379Z,-143.63
2018-07-06T20:52:53.892Z,-143.63
2018-07-06T20:55:22.349Z,-143.63
2018-07-06T20:57:50.756Z,-143.63
2018-07-06T21:00:19.026Z,-143.63
2018-07-06T21:02:47.340Z,-143.63
2018-07-06T21:05:16.566Z,-143.63
2018-07-06T21:07:44.935Z,-143.63
2018-07-06T21:10:13.140Z,-143.63
2018-07-06T21:12:41.575Z,-143.63
2018-07-06T21:15:09.935Z,-143.63
2018-07-06T21:17:38.266Z,-143.63
2018-07-06T21:20:06.547Z,-143.63
2018-07-06T21:22:34.781Z,-143.63
2018-07-06T21:25:03.344Z,-143.63
2018-07-06T21:27:31.664Z,-143.63
2018-07-06T21:30:00.149Z,-143.63
2018-07-06T21:32:28.522Z,-143.63
2018-07-06T21:34:56.797Z,-143.63
2018-07-06T21:37:25.142Z,-143.63
2018-07-06T21:39:53.522Z,-143.63
2018-07-06T21:42:21.939Z,-143.63
2018-07-06T21:44:50.185Z,-143.63
2018-07-06T21:47:18.871Z,-143.63
2018-07-06T21:49:48.260Z,-143.63
2018-07-06T21:52:17.405Z,-143.63
2018-07-06T21:54:46.221Z,-143.63
2018-07-06T21:57:15.746Z,-143.63
2018-07-06T21:59:44.950Z,-143.63
2018-07-06T22:02:14.916Z,-143.63
2018-07-06T22:04:46.866Z,-143.63
2018-07-06T22:07:16.165Z,-143.63
2018-07-06T22:09:45.272Z,-143.63
2018-07-06T22:12:13.760Z,-143.63
2018-07-06T22:14:42.148Z,-143.63
2018-07-06T22:17:10.564Z,-143.63
2018-07-06T22:19:39.128Z,-143.63
2018-07-06T22:22:07.468Z,-143.63
2018-07-06T22:24:37.049Z,-143.63
2018-07-06T22:27:06.356Z,-143.63
2018-07-06T22:29:34.897Z,-143.63
2018-07-06T22:32:04.929Z,-143.63
2018-07-06T22:34:34.568Z,-143.63
2018-07-06T22:37:03.130Z,-143.63
2018-07-06T22:39:32.056Z,-143.63
2018-07-06T22:42:00.796Z,-143.63
2018-07-06T22:44:29.135Z,-143.63
2018-07-06T22:46:57.666Z,-143.63
2018-07-06T22:49:26.040Z,-143.63
2018-07-06T22:51:54.231Z,-143.63
2018-07-06T22:54:23.336Z,-143.63
2018-07-06T22:56:52.432Z,-143.63
2018-07-06T22:59:25.458Z,-143.63
2018-07-06T23:01:54.056Z,-143.63
2018-07-06T23:04:22.598Z,-143.63
2018-07-06T23:06:52.786Z,-143.63
2018-07-06T23:09:21.187Z,-143.63
2018-07-06T23:11:49.524Z,-143.63
2018-07-06T23:14:17.815Z,-143.63
2018-07-06T23:16:47.067Z,-143.63
2018-07-06T23:19:16.657Z,-143.63
2018-07-06T23:21:45.161Z,-143.63
2018-07-06T23:24:13.825Z,-143.63
2018-07-06T23:26:42.858Z,-143.63
2018-07-06T23:29:12.088Z,-143.63
2018-07-06T23:31:40.435Z,-143.63
2018-07-06T23:34:08.837Z,-143.63
2018-07-06T23:36:37.093Z,-143.63
2018-07-06T23:39:05.506Z,-143.63
2018-07-06T23:41:33.951Z,-143.63
2018-07-06T23:44:03.012Z,-143.63
2018-07-06T23:46:31.502Z,-143.63
2018-07-06T23:49:00.139Z,-143.63
2018-07-06T23:51:28.468Z,-143.63
2018-07-06T23:53:57.322Z,-143.63
2018-07-06T23:56:25.998Z,-143.63
2018-07-06T23:58:59.738Z,-143.63
